sensor_id;sensor_type;location;lat;lon;timestamp;P1;durP1;ratioP1;P2;durP2;ratioP2
76121;SDS011;64853;53.200;6.080;2022-11-20T00:00:07;1.77;;;1.40;;
76121;SDS011;64853;53.200;6.080;2022-11-20T00:02:36;1.60;;;1.13;;
76121;SDS011;64853;53.200;6.080;2022-11-20T00:05:02;1.88;;;1.30;;
76121;SDS011;64853;53.200;6.080;2022-11-20T00:07:29;1.70;;;1.50;;
76121;SDS011;64853;53.200;6.080;2022-11-20T00:09:55;2.45;;;1.40;;
76121;SDS011;64853;53.200;6.080;2022-11-20T00:12:22;1.75;;;1.42;;
76121;SDS011;64853;53.200;6.080;2022-11-20T00:14:48;2.40;;;1.63;;
76121;SDS011;64853;53.200;6.080;2022-11-20T00:17:15;1.40;;;1.10;;
76121;SDS011;64853;53.200;6.080;2022-11-20T00:19:42;1.88;;;1.30;;
76121;SDS011;64853;53.200;6.080;2022-11-20T00:22:09;1.60;;;1.38;;
76121;SDS011;64853;53.200;6.080;2022-11-20T00:24:35;1.55;;;1.45;;
76121;SDS011;64853;53.200;6.080;2022-11-20T00:27:02;1.40;;;1.02;;
76121;SDS011;64853;53.200;6.080;2022-11-20T00:29:28;1.90;;;1.58;;
76121;SDS011;64853;53.200;6.080;2022-11-20T00:31:55;1.85;;;1.10;;
76121;SDS011;64853;53.200;6.080;2022-11-20T00:34:21;1.73;;;1.30;;
76121;SDS011;64853;53.200;6.080;2022-11-20T00:36:49;1.67;;;1.15;;
76121;SDS011;64853;53.200;6.080;2022-11-20T00:39:15;1.15;;;1.05;;
76121;SDS011;64853;53.200;6.080;2022-11-20T00:41:42;1.40;;;1.30;;
76121;SDS011;64853;53.200;6.080;2022-11-20T00:44:08;1.90;;;1.38;;
76121;SDS011;64853;53.200;6.080;2022-11-20T00:46:34;1.17;;;1.08;;
76121;SDS011;64853;53.200;6.080;2022-11-20T00:49:01;1.65;;;1.15;;
76121;SDS011;64853;53.200;6.080;2022-11-20T00:51:27;1.60;;;1.40;;
76121;SDS011;64853;53.200;6.080;2022-11-20T00:53:56;1.73;;;1.23;;
76121;SDS011;64853;53.200;6.080;2022-11-20T00:56:23;1.58;;;1.30;;
76121;SDS011;64853;53.200;6.080;2022-11-20T00:58:50;2.13;;;1.30;;
76121;SDS011;64853;53.200;6.080;2022-11-20T01:01:17;1.38;;;1.08;;
76121;SDS011;64853;53.200;6.080;2022-11-20T01:03:45;1.30;;;1.20;;
76121;SDS011;64853;53.200;6.080;2022-11-20T01:06:15;2.00;;;1.30;;
76121;SDS011;64853;53.200;6.080;2022-11-20T01:08:44;1.23;;;0.90;;
76121;SDS011;64853;53.200;6.080;2022-11-20T01:11:13;1.40;;;1.02;;
76121;SDS011;64853;53.200;6.080;2022-11-20T01:13:41;1.20;;;1.10;;
76121;SDS011;64853;53.200;6.080;2022-11-20T01:16:08;1.63;;;1.13;;
76121;SDS011;64853;53.200;6.080;2022-11-20T01:18:37;1.23;;;0.88;;
76121;SDS011;64853;53.200;6.080;2022-11-20T01:21:06;1.27;;;1.17;;
76121;SDS011;64853;53.200;6.080;2022-11-20T01:23:35;1.30;;;1.10;;
76121;SDS011;64853;53.200;6.080;2022-11-20T01:26:03;1.77;;;1.15;;
76121;SDS011;64853;53.200;6.080;2022-11-20T01:28:33;1.08;;;0.80;;
76121;SDS011;64853;53.200;6.080;2022-11-20T01:31:00;1.05;;;0.90;;
76121;SDS011;64853;53.200;6.080;2022-11-20T01:33:27;0.98;;;0.80;;
76121;SDS011;64853;53.200;6.080;2022-11-20T01:35:53;1.50;;;1.27;;
76121;SDS011;64853;53.200;6.080;2022-11-20T01:38:30;1.27;;;0.85;;
76121;SDS011;64853;53.200;6.080;2022-11-20T01:40:56;1.45;;;0.90;;
76121;SDS011;64853;53.200;6.080;2022-11-20T01:43:23;1.27;;;1.00;;
76121;SDS011;64853;53.200;6.080;2022-11-20T01:45:55;1.48;;;1.02;;
76121;SDS011;64853;53.200;6.080;2022-11-20T01:48:33;1.40;;;1.02;;
76121;SDS011;64853;53.200;6.080;2022-11-20T01:51:04;1.35;;;0.98;;
76121;SDS011;64853;53.200;6.080;2022-11-20T01:53:33;1.58;;;1.10;;
76121;SDS011;64853;53.200;6.080;2022-11-20T01:58:32;1.50;;;0.90;;
76121;SDS011;64853;53.200;6.080;2022-11-20T02:01:03;1.15;;;0.88;;
76121;SDS011;64853;53.200;6.080;2022-11-20T02:03:30;2.00;;;1.00;;
76121;SDS011;64853;53.200;6.080;2022-11-20T02:06:00;1.30;;;1.10;;
76121;SDS011;64853;53.200;6.080;2022-11-20T02:08:31;1.10;;;1.00;;
76121;SDS011;64853;53.200;6.080;2022-11-20T02:10:58;1.60;;;1.05;;
76121;SDS011;64853;53.200;6.080;2022-11-20T02:13:24;0.93;;;0.90;;
76121;SDS011;64853;53.200;6.080;2022-11-20T02:16:11;1.10;;;1.00;;
76121;SDS011;64853;53.200;6.080;2022-11-20T02:18:41;1.45;;;1.08;;
76121;SDS011;64853;53.200;6.080;2022-11-20T02:21:11;1.13;;;1.02;;
76121;SDS011;64853;53.200;6.080;2022-11-20T02:24:02;1.35;;;1.02;;
76121;SDS011;64853;53.200;6.080;2022-11-20T02:26:31;1.58;;;1.00;;
76121;SDS011;64853;53.200;6.080;2022-11-20T02:29:00;1.50;;;1.00;;
76121;SDS011;64853;53.200;6.080;2022-11-20T02:31:28;0.98;;;0.82;;
76121;SDS011;64853;53.200;6.080;2022-11-20T02:33:55;0.85;;;0.73;;
76121;SDS011;64853;53.200;6.080;2022-11-20T02:36:22;1.38;;;1.20;;
76121;SDS011;64853;53.200;6.080;2022-11-20T02:38:52;1.17;;;0.93;;
76121;SDS011;64853;53.200;6.080;2022-11-20T02:41:20;1.02;;;0.90;;
76121;SDS011;64853;53.200;6.080;2022-11-20T02:43:47;1.23;;;1.02;;
76121;SDS011;64853;53.200;6.080;2022-11-20T02:46:13;1.38;;;0.82;;
76121;SDS011;64853;53.200;6.080;2022-11-20T02:48:40;1.23;;;0.70;;
76121;SDS011;64853;53.200;6.080;2022-11-20T02:51:06;1.15;;;1.05;;
76121;SDS011;64853;53.200;6.080;2022-11-20T02:53:32;1.02;;;0.85;;
76121;SDS011;64853;53.200;6.080;2022-11-20T02:55:59;0.73;;;0.73;;
76121;SDS011;64853;53.200;6.080;2022-11-20T02:58:26;1.05;;;0.80;;
76121;SDS011;64853;53.200;6.080;2022-11-20T03:00:53;1.20;;;0.80;;
76121;SDS011;64853;53.200;6.080;2022-11-20T03:03:19;1.20;;;0.90;;
76121;SDS011;64853;53.200;6.080;2022-11-20T03:05:46;1.10;;;0.70;;
76121;SDS011;64853;53.200;6.080;2022-11-20T03:08:12;1.13;;;0.90;;
76121;SDS011;64853;53.200;6.080;2022-11-20T03:10:39;1.05;;;0.93;;
76121;SDS011;64853;53.200;6.080;2022-11-20T03:13:05;1.25;;;0.95;;
76121;SDS011;64853;53.200;6.080;2022-11-20T03:15:33;1.23;;;0.90;;
76121;SDS011;64853;53.200;6.080;2022-11-20T03:18:01;1.23;;;0.90;;
76121;SDS011;64853;53.200;6.080;2022-11-20T03:20:28;0.80;;;0.77;;
76121;SDS011;64853;53.200;6.080;2022-11-20T03:22:54;0.75;;;0.65;;
76121;SDS011;64853;53.200;6.080;2022-11-20T03:25:21;0.90;;;0.80;;
76121;SDS011;64853;53.200;6.080;2022-11-20T03:27:48;1.30;;;0.93;;
76121;SDS011;64853;53.200;6.080;2022-11-20T03:30:14;1.75;;;0.98;;
76121;SDS011;64853;53.200;6.080;2022-11-20T03:32:42;1.38;;;0.90;;
76121;SDS011;64853;53.200;6.080;2022-11-20T03:35:09;0.90;;;0.80;;
76121;SDS011;64853;53.200;6.080;2022-11-20T03:37:35;1.10;;;0.90;;
76121;SDS011;64853;53.200;6.080;2022-11-20T03:40:02;0.77;;;0.77;;
76121;SDS011;64853;53.200;6.080;2022-11-20T03:42:29;0.80;;;0.80;;
76121;SDS011;64853;53.200;6.080;2022-11-20T03:45:11;1.70;;;0.90;;
76121;SDS011;64853;53.200;6.080;2022-11-20T03:47:37;0.57;;;0.57;;
76121;SDS011;64853;53.200;6.080;2022-11-20T03:50:06;1.17;;;0.90;;
76121;SDS011;64853;53.200;6.080;2022-11-20T03:52:33;1.08;;;0.90;;
76121;SDS011;64853;53.200;6.080;2022-11-20T03:54:59;1.20;;;0.82;;
76121;SDS011;64853;53.200;6.080;2022-11-20T03:57:26;0.95;;;0.80;;
76121;SDS011;64853;53.200;6.080;2022-11-20T03:59:52;1.05;;;0.80;;
76121;SDS011;64853;53.200;6.080;2022-11-20T04:02:18;1.13;;;0.75;;
76121;SDS011;64853;53.200;6.080;2022-11-20T04:04:45;1.38;;;0.82;;
76121;SDS011;64853;53.200;6.080;2022-11-20T04:07:13;0.68;;;0.68;;
76121;SDS011;64853;53.200;6.080;2022-11-20T04:09:39;1.13;;;1.00;;
76121;SDS011;64853;53.200;6.080;2022-11-20T04:12:05;1.45;;;0.90;;
76121;SDS011;64853;53.200;6.080;2022-11-20T04:14:32;1.27;;;0.80;;
76121;SDS011;64853;53.200;6.080;2022-11-20T04:16:58;1.23;;;1.00;;
76121;SDS011;64853;53.200;6.080;2022-11-20T04:19:25;0.98;;;0.77;;
76121;SDS011;64853;53.200;6.080;2022-11-20T04:21:51;0.90;;;0.80;;
76121;SDS011;64853;53.200;6.080;2022-11-20T04:24:19;0.73;;;0.60;;
76121;SDS011;64853;53.200;6.080;2022-11-20T04:26:46;0.98;;;0.73;;
76121;SDS011;64853;53.200;6.080;2022-11-20T04:29:12;0.70;;;0.70;;
76121;SDS011;64853;53.200;6.080;2022-11-20T04:31:39;1.23;;;0.90;;
76121;SDS011;64853;53.200;6.080;2022-11-20T04:34:06;1.17;;;0.75;;
76121;SDS011;64853;53.200;6.080;2022-11-20T04:36:33;1.00;;;0.80;;
76121;SDS011;64853;53.200;6.080;2022-11-20T04:39:00;1.77;;;0.90;;
76121;SDS011;64853;53.200;6.080;2022-11-20T04:41:30;0.80;;;0.60;;
76121;SDS011;64853;53.200;6.080;2022-11-20T04:43:58;0.63;;;0.55;;
76121;SDS011;64853;53.200;6.080;2022-11-20T04:46:28;1.00;;;0.82;;
76121;SDS011;64853;53.200;6.080;2022-11-20T04:48:55;0.80;;;0.50;;
76121;SDS011;64853;53.200;6.080;2022-11-20T04:51:22;1.08;;;0.80;;
76121;SDS011;64853;53.200;6.080;2022-11-20T04:53:49;0.60;;;0.60;;
76121;SDS011;64853;53.200;6.080;2022-11-20T04:56:15;0.80;;;0.70;;
76121;SDS011;64853;53.200;6.080;2022-11-20T04:58:43;1.20;;;1.08;;
76121;SDS011;64853;53.200;6.080;2022-11-20T05:01:10;1.08;;;0.70;;
76121;SDS011;64853;53.200;6.080;2022-11-20T05:03:38;0.85;;;0.82;;
76121;SDS011;64853;53.200;6.080;2022-11-20T05:06:05;0.70;;;0.45;;
76121;SDS011;64853;53.200;6.080;2022-11-20T05:08:33;0.80;;;0.80;;
76121;SDS011;64853;53.200;6.080;2022-11-20T05:11:00;0.98;;;0.60;;
76121;SDS011;64853;53.200;6.080;2022-11-20T05:13:27;0.60;;;0.60;;
76121;SDS011;64853;53.200;6.080;2022-11-20T05:15:55;0.80;;;0.68;;
76121;SDS011;64853;53.200;6.080;2022-11-20T05:18:27;0.55;;;0.55;;
76121;SDS011;64853;53.200;6.080;2022-11-20T05:20:54;0.70;;;0.70;;
76121;SDS011;64853;53.200;6.080;2022-11-20T05:23:22;0.70;;;0.68;;
76121;SDS011;64853;53.200;6.080;2022-11-20T05:25:51;0.70;;;0.50;;
76121;SDS011;64853;53.200;6.080;2022-11-20T05:28:18;0.98;;;0.80;;
76121;SDS011;64853;53.200;6.080;2022-11-20T05:30:45;0.57;;;0.50;;
76121;SDS011;64853;53.200;6.080;2022-11-20T05:33:12;0.93;;;0.65;;
76121;SDS011;64853;53.200;6.080;2022-11-20T05:35:39;0.70;;;0.60;;
76121;SDS011;64853;53.200;6.080;2022-11-20T05:38:06;0.60;;;0.60;;
76121;SDS011;64853;53.200;6.080;2022-11-20T05:40:32;0.52;;;0.50;;
76121;SDS011;64853;53.200;6.080;2022-11-20T05:42:59;0.50;;;0.50;;
76121;SDS011;64853;53.200;6.080;2022-11-20T05:45:25;0.95;;;0.70;;
76121;SDS011;64853;53.200;6.080;2022-11-20T05:47:52;1.10;;;0.70;;
76121;SDS011;64853;53.200;6.080;2022-11-20T05:50:20;0.57;;;0.57;;
76121;SDS011;64853;53.200;6.080;2022-11-20T05:52:46;1.05;;;0.63;;
76121;SDS011;64853;53.200;6.080;2022-11-20T05:55:13;0.93;;;0.70;;
76121;SDS011;64853;53.200;6.080;2022-11-20T05:57:39;0.73;;;0.60;;
76121;SDS011;64853;53.200;6.080;2022-11-20T06:00:06;0.90;;;0.70;;
76121;SDS011;64853;53.200;6.080;2022-11-20T06:02:34;0.60;;;0.60;;
76121;SDS011;64853;53.200;6.080;2022-11-20T06:05:01;0.90;;;0.80;;
76121;SDS011;64853;53.200;6.080;2022-11-20T06:07:29;0.70;;;0.60;;
76121;SDS011;64853;53.200;6.080;2022-11-20T06:09:56;0.60;;;0.60;;
76121;SDS011;64853;53.200;6.080;2022-11-20T06:12:22;0.80;;;0.50;;
76121;SDS011;64853;53.200;6.080;2022-11-20T06:14:48;0.68;;;0.50;;
76121;SDS011;64853;53.200;6.080;2022-11-20T06:17:15;0.75;;;0.57;;
76121;SDS011;64853;53.200;6.080;2022-11-20T06:19:41;0.60;;;0.50;;
76121;SDS011;64853;53.200;6.080;2022-11-20T06:22:08;0.73;;;0.60;;
76121;SDS011;64853;53.200;6.080;2022-11-20T06:24:35;0.70;;;0.60;;
76121;SDS011;64853;53.200;6.080;2022-11-20T06:27:02;0.70;;;0.60;;
76121;SDS011;64853;53.200;6.080;2022-11-20T06:29:28;0.80;;;0.60;;
76121;SDS011;64853;53.200;6.080;2022-11-20T06:31:55;0.85;;;0.60;;
76121;SDS011;64853;53.200;6.080;2022-11-20T06:34:21;0.82;;;0.68;;
76121;SDS011;64853;53.200;6.080;2022-11-20T06:36:48;0.93;;;0.75;;
76121;SDS011;64853;53.200;6.080;2022-11-20T06:39:14;0.77;;;0.70;;
76121;SDS011;64853;53.200;6.080;2022-11-20T06:41:42;0.60;;;0.52;;
76121;SDS011;64853;53.200;6.080;2022-11-20T06:44:08;0.80;;;0.68;;
76121;SDS011;64853;53.200;6.080;2022-11-20T06:46:35;0.68;;;0.60;;
76121;SDS011;64853;53.200;6.080;2022-11-20T06:49:01;0.60;;;0.60;;
76121;SDS011;64853;53.200;6.080;2022-11-20T06:51:28;1.02;;;0.70;;
76121;SDS011;64853;53.200;6.080;2022-11-20T06:53:54;1.42;;;0.77;;
76121;SDS011;64853;53.200;6.080;2022-11-20T06:56:21;0.68;;;0.50;;
76121;SDS011;64853;53.200;6.080;2022-11-20T06:58:48;0.68;;;0.68;;
76121;SDS011;64853;53.200;6.080;2022-11-20T07:01:15;0.82;;;0.60;;
76121;SDS011;64853;53.200;6.080;2022-11-20T07:03:42;0.70;;;0.60;;
76121;SDS011;64853;53.200;6.080;2022-11-20T07:06:08;0.60;;;0.60;;
76121;SDS011;64853;53.200;6.080;2022-11-20T07:08:35;0.75;;;0.60;;
76121;SDS011;64853;53.200;6.080;2022-11-20T07:11:02;0.73;;;0.65;;
76121;SDS011;64853;53.200;6.080;2022-11-20T07:13:31;0.85;;;0.70;;
76121;SDS011;64853;53.200;6.080;2022-11-20T07:16:00;0.65;;;0.60;;
76121;SDS011;64853;53.200;6.080;2022-11-20T07:18:27;0.70;;;0.60;;
76121;SDS011;64853;53.200;6.080;2022-11-20T07:20:54;0.95;;;0.50;;
76121;SDS011;64853;53.200;6.080;2022-11-20T07:23:21;0.82;;;0.70;;
76121;SDS011;64853;53.200;6.080;2022-11-20T07:25:48;0.75;;;0.60;;
76121;SDS011;64853;53.200;6.080;2022-11-20T07:28:14;0.50;;;0.45;;
76121;SDS011;64853;53.200;6.080;2022-11-20T07:30:41;0.90;;;0.60;;
76121;SDS011;64853;53.200;6.080;2022-11-20T07:33:08;0.80;;;0.80;;
76121;SDS011;64853;53.200;6.080;2022-11-20T07:35:35;0.77;;;0.70;;
76121;SDS011;64853;53.200;6.080;2022-11-20T07:38:01;1.25;;;1.00;;
76121;SDS011;64853;53.200;6.080;2022-11-20T07:40:28;1.20;;;0.80;;
76121;SDS011;64853;53.200;6.080;2022-11-20T07:42:54;1.38;;;1.10;;
76121;SDS011;64853;53.200;6.080;2022-11-20T07:45:22;1.23;;;1.10;;
76121;SDS011;64853;53.200;6.080;2022-11-20T07:47:49;1.63;;;1.02;;
76121;SDS011;64853;53.200;6.080;2022-11-20T07:50:18;6.53;;;1.02;;
76121;SDS011;64853;53.200;6.080;2022-11-20T07:52:45;1.02;;;0.80;;
76121;SDS011;64853;53.200;6.080;2022-11-20T07:55:11;1.00;;;0.73;;
76121;SDS011;64853;53.200;6.080;2022-11-20T07:57:38;0.90;;;0.70;;
76121;SDS011;64853;53.200;6.080;2022-11-20T08:00:05;0.88;;;0.60;;
76121;SDS011;64853;53.200;6.080;2022-11-20T08:02:36;0.73;;;0.70;;
76121;SDS011;64853;53.200;6.080;2022-11-20T08:05:03;0.95;;;0.68;;
76121;SDS011;64853;53.200;6.080;2022-11-20T08:07:35;0.60;;;0.60;;
76121;SDS011;64853;53.200;6.080;2022-11-20T08:10:02;1.38;;;0.77;;
76121;SDS011;64853;53.200;6.080;2022-11-20T08:12:30;0.73;;;0.57;;
76121;SDS011;64853;53.200;6.080;2022-11-20T08:15:14;1.13;;;0.60;;
76121;SDS011;64853;53.200;6.080;2022-11-20T08:17:40;0.70;;;0.55;;
76121;SDS011;64853;53.200;6.080;2022-11-20T08:20:07;1.58;;;0.90;;
76121;SDS011;64853;53.200;6.080;2022-11-20T08:22:36;0.80;;;0.80;;
76121;SDS011;64853;53.200;6.080;2022-11-20T08:25:02;1.00;;;0.90;;
76121;SDS011;64853;53.200;6.080;2022-11-20T08:27:31;0.73;;;0.73;;
76121;SDS011;64853;53.200;6.080;2022-11-20T08:29:57;1.10;;;0.70;;
76121;SDS011;64853;53.200;6.080;2022-11-20T08:32:24;1.15;;;0.80;;
76121;SDS011;64853;53.200;6.080;2022-11-20T08:34:50;1.10;;;0.80;;
76121;SDS011;64853;53.200;6.080;2022-11-20T08:37:17;1.15;;;0.52;;
76121;SDS011;64853;53.200;6.080;2022-11-20T08:39:45;0.93;;;0.60;;
76121;SDS011;64853;53.200;6.080;2022-11-20T08:42:11;1.00;;;0.80;;
76121;SDS011;64853;53.200;6.080;2022-11-20T08:44:38;0.80;;;0.50;;
76121;SDS011;64853;53.200;6.080;2022-11-20T08:47:04;0.60;;;0.57;;
76121;SDS011;64853;53.200;6.080;2022-11-20T08:49:31;0.60;;;0.60;;
76121;SDS011;64853;53.200;6.080;2022-11-20T08:51:57;0.50;;;0.50;;
76121;SDS011;64853;53.200;6.080;2022-11-20T08:54:23;0.60;;;0.60;;
76121;SDS011;64853;53.200;6.080;2022-11-20T08:56:51;0.90;;;0.57;;
76121;SDS011;64853;53.200;6.080;2022-11-20T08:59:18;0.80;;;0.50;;
76121;SDS011;64853;53.200;6.080;2022-11-20T09:01:44;0.77;;;0.63;;
76121;SDS011;64853;53.200;6.080;2022-11-20T09:04:11;0.82;;;0.68;;
76121;SDS011;64853;53.200;6.080;2022-11-20T09:06:39;0.73;;;0.70;;
76121;SDS011;64853;53.200;6.080;2022-11-20T09:09:05;0.80;;;0.70;;
76121;SDS011;64853;53.200;6.080;2022-11-20T09:11:32;0.68;;;0.63;;
76121;SDS011;64853;53.200;6.080;2022-11-20T09:14:01;0.50;;;0.40;;
76121;SDS011;64853;53.200;6.080;2022-11-20T09:16:29;0.80;;;0.63;;
76121;SDS011;64853;53.200;6.080;2022-11-20T09:18:55;0.60;;;0.50;;
76121;SDS011;64853;53.200;6.080;2022-11-20T09:21:22;0.55;;;0.50;;
76121;SDS011;64853;53.200;6.080;2022-11-20T09:23:49;0.50;;;0.50;;
76121;SDS011;64853;53.200;6.080;2022-11-20T09:26:16;0.90;;;0.60;;
76121;SDS011;64853;53.200;6.080;2022-11-20T09:28:42;0.80;;;0.70;;
76121;SDS011;64853;53.200;6.080;2022-11-20T09:31:21;0.60;;;0.57;;
76121;SDS011;64853;53.200;6.080;2022-11-20T09:33:49;0.52;;;0.47;;
76121;SDS011;64853;53.200;6.080;2022-11-20T09:36:16;0.88;;;0.63;;
76121;SDS011;64853;53.200;6.080;2022-11-20T09:38:43;1.05;;;0.60;;
76121;SDS011;64853;53.200;6.080;2022-11-20T09:41:10;0.70;;;0.60;;
76121;SDS011;64853;53.200;6.080;2022-11-20T09:43:55;0.50;;;0.50;;
76121;SDS011;64853;53.200;6.080;2022-11-20T09:46:29;0.75;;;0.60;;
76121;SDS011;64853;53.200;6.080;2022-11-20T09:49:09;1.10;;;0.70;;
76121;SDS011;64853;53.200;6.080;2022-11-20T09:51:50;0.45;;;0.40;;
76121;SDS011;64853;53.200;6.080;2022-11-20T09:54:25;0.30;;;0.30;;
76121;SDS011;64853;53.200;6.080;2022-11-20T09:56:56;0.60;;;0.60;;
76121;SDS011;64853;53.200;6.080;2022-11-20T10:02:16;0.57;;;0.50;;
76121;SDS011;64853;53.200;6.080;2022-11-20T10:04:55;0.60;;;0.47;;
76121;SDS011;64853;53.200;6.080;2022-11-20T10:07:27;0.80;;;0.50;;
76121;SDS011;64853;53.200;6.080;2022-11-20T10:10:01;0.70;;;0.60;;
76121;SDS011;64853;53.200;6.080;2022-11-20T10:12:31;1.10;;;0.60;;
76121;SDS011;64853;53.200;6.080;2022-11-20T10:15:23;1.05;;;0.50;;
76121;SDS011;64853;53.200;6.080;2022-11-20T10:18:05;1.23;;;0.70;;
76121;SDS011;64853;53.200;6.080;2022-11-20T10:20:43;0.60;;;0.55;;
76121;SDS011;64853;53.200;6.080;2022-11-20T10:23:20;0.95;;;0.85;;
76121;SDS011;64853;53.200;6.080;2022-11-20T10:25:59;0.77;;;0.60;;
76121;SDS011;64853;53.200;6.080;2022-11-20T10:28:30;1.17;;;0.63;;
76121;SDS011;64853;53.200;6.080;2022-11-20T10:31:09;0.45;;;0.38;;
76121;SDS011;64853;53.200;6.080;2022-11-20T10:33:41;0.80;;;0.50;;
76121;SDS011;64853;53.200;6.080;2022-11-20T10:36:14;0.70;;;0.50;;
76121;SDS011;64853;53.200;6.080;2022-11-20T10:38:45;0.65;;;0.60;;
76121;SDS011;64853;53.200;6.080;2022-11-20T10:41:16;0.35;;;0.30;;
76121;SDS011;64853;53.200;6.080;2022-11-20T10:43:51;0.35;;;0.32;;
76121;SDS011;64853;53.200;6.080;2022-11-20T10:46:24;0.57;;;0.40;;
76121;SDS011;64853;53.200;6.080;2022-11-20T10:48:53;0.40;;;0.40;;
76121;SDS011;64853;53.200;6.080;2022-11-20T10:51:21;0.93;;;0.70;;
76121;SDS011;64853;53.200;6.080;2022-11-20T10:53:58;0.88;;;0.60;;
76121;SDS011;64853;53.200;6.080;2022-11-20T10:56:35;0.88;;;0.55;;
76121;SDS011;64853;53.200;6.080;2022-11-20T10:59:28;0.70;;;0.60;;
76121;SDS011;64853;53.200;6.080;2022-11-20T11:02:14;0.65;;;0.40;;
76121;SDS011;64853;53.200;6.080;2022-11-20T11:04:44;0.52;;;0.40;;
76121;SDS011;64853;53.200;6.080;2022-11-20T11:07:13;0.50;;;0.50;;
76121;SDS011;64853;53.200;6.080;2022-11-20T11:09:46;0.70;;;0.70;;
76121;SDS011;64853;53.200;6.080;2022-11-20T11:12:15;0.60;;;0.60;;
76121;SDS011;64853;53.200;6.080;2022-11-20T11:14:45;0.60;;;0.60;;
76121;SDS011;64853;53.200;6.080;2022-11-20T11:17:20;0.40;;;0.40;;
76121;SDS011;64853;53.200;6.080;2022-11-20T11:19:58;0.73;;;0.50;;
76121;SDS011;64853;53.200;6.080;2022-11-20T11:22:30;1.38;;;0.52;;
76121;SDS011;64853;53.200;6.080;2022-11-20T11:24:58;0.40;;;0.40;;
76121;SDS011;64853;53.200;6.080;2022-11-20T11:27:25;0.80;;;0.70;;
76121;SDS011;64853;53.200;6.080;2022-11-20T11:30:00;0.70;;;0.60;;
76121;SDS011;64853;53.200;6.080;2022-11-20T11:32:29;0.43;;;0.32;;
76121;SDS011;64853;53.200;6.080;2022-11-20T11:35:00;0.40;;;0.40;;
76121;SDS011;64853;53.200;6.080;2022-11-20T11:37:28;0.60;;;0.60;;
76121;SDS011;64853;53.200;6.080;2022-11-20T11:39:59;1.10;;;0.60;;
76121;SDS011;64853;53.200;6.080;2022-11-20T11:42:26;0.60;;;0.60;;
76121;SDS011;64853;53.200;6.080;2022-11-20T11:44:54;0.57;;;0.50;;
76121;SDS011;64853;53.200;6.080;2022-11-20T11:47:32;0.70;;;0.50;;
76121;SDS011;64853;53.200;6.080;2022-11-20T11:50:08;0.70;;;0.70;;
76121;SDS011;64853;53.200;6.080;2022-11-20T11:52:42;0.82;;;0.60;;
76121;SDS011;64853;53.200;6.080;2022-11-20T11:55:14;0.75;;;0.60;;
76121;SDS011;64853;53.200;6.080;2022-11-20T11:57:46;0.65;;;0.52;;
76121;SDS011;64853;53.200;6.080;2022-11-20T12:00:16;1.17;;;1.13;;
76121;SDS011;64853;53.200;6.080;2022-11-20T12:02:49;1.20;;;0.80;;
76121;SDS011;64853;53.200;6.080;2022-11-20T12:05:28;0.88;;;0.85;;
76121;SDS011;64853;53.200;6.080;2022-11-20T12:08:02;1.50;;;1.08;;
76121;SDS011;64853;53.200;6.080;2022-11-20T12:10:37;3.50;;;1.00;;
76121;SDS011;64853;53.200;6.080;2022-11-20T12:13:15;1.10;;;0.88;;
76121;SDS011;64853;53.200;6.080;2022-11-20T12:16:00;1.30;;;0.90;;
76121;SDS011;64853;53.200;6.080;2022-11-20T12:18:28;1.10;;;0.80;;
76121;SDS011;64853;53.200;6.080;2022-11-20T12:21:02;1.15;;;1.05;;
76121;SDS011;64853;53.200;6.080;2022-11-20T12:23:40;1.90;;;1.38;;
76121;SDS011;64853;53.200;6.080;2022-11-20T12:26:17;1.77;;;1.48;;
76121;SDS011;64853;53.200;6.080;2022-11-20T12:28:55;2.13;;;1.73;;
76121;SDS011;64853;53.200;6.080;2022-11-20T12:31:33;2.58;;;1.83;;
76121;SDS011;64853;53.200;6.080;2022-11-20T12:34:22;2.35;;;2.15;;
76121;SDS011;64853;53.200;6.080;2022-11-20T12:37:00;1.95;;;1.73;;
76121;SDS011;64853;53.200;6.080;2022-11-20T12:39:39;1.40;;;1.30;;
76121;SDS011;64853;53.200;6.080;2022-11-20T12:42:17;1.88;;;1.20;;
76121;SDS011;64853;53.200;6.080;2022-11-20T12:45:32;3.00;;;0.90;;
76121;SDS011;64853;53.200;6.080;2022-11-20T12:48:27;1.83;;;1.13;;
76121;SDS011;64853;53.200;6.080;2022-11-20T12:54:24;1.35;;;1.10;;
76121;SDS011;64853;53.200;6.080;2022-11-20T12:57:09;1.40;;;1.05;;
76121;SDS011;64853;53.200;6.080;2022-11-20T13:02:37;1.52;;;0.90;;
76121;SDS011;64853;53.200;6.080;2022-11-20T13:05:17;1.23;;;1.00;;
76121;SDS011;64853;53.200;6.080;2022-11-20T13:07:48;1.30;;;0.80;;
76121;SDS011;64853;53.200;6.080;2022-11-20T13:10:20;0.95;;;0.70;;
76121;SDS011;64853;53.200;6.080;2022-11-20T13:12:54;1.30;;;1.15;;
76121;SDS011;64853;53.200;6.080;2022-11-20T13:15:30;1.08;;;0.77;;
76121;SDS011;64853;53.200;6.080;2022-11-20T13:18:03;1.25;;;0.57;;
76121;SDS011;64853;53.200;6.080;2022-11-20T13:20:34;0.70;;;0.52;;
76121;SDS011;64853;53.200;6.080;2022-11-20T13:23:02;0.63;;;0.60;;
76121;SDS011;64853;53.200;6.080;2022-11-20T13:25:30;0.60;;;0.60;;
76121;SDS011;64853;53.200;6.080;2022-11-20T13:27:58;1.02;;;0.60;;
76121;SDS011;64853;53.200;6.080;2022-11-20T13:30:27;0.65;;;0.40;;
76121;SDS011;64853;53.200;6.080;2022-11-20T13:32:55;0.60;;;0.60;;
76121;SDS011;64853;53.200;6.080;2022-11-20T13:35:29;0.40;;;0.30;;
76121;SDS011;64853;53.200;6.080;2022-11-20T13:38:01;0.82;;;0.60;;
76121;SDS011;64853;53.200;6.080;2022-11-20T13:40:31;0.60;;;0.60;;
76121;SDS011;64853;53.200;6.080;2022-11-20T13:43:04;0.98;;;0.70;;
76121;SDS011;64853;53.200;6.080;2022-11-20T13:45:37;0.70;;;0.70;;
76121;SDS011;64853;53.200;6.080;2022-11-20T13:48:04;0.60;;;0.60;;
76121;SDS011;64853;53.200;6.080;2022-11-20T13:50:46;1.15;;;0.77;;
76121;SDS011;64853;53.200;6.080;2022-11-20T13:53:25;1.40;;;0.60;;
76121;SDS011;64853;53.200;6.080;2022-11-20T13:56:05;0.63;;;0.60;;
76121;SDS011;64853;53.200;6.080;2022-11-20T13:58:40;0.63;;;0.52;;
76121;SDS011;64853;53.200;6.080;2022-11-20T14:01:19;0.70;;;0.70;;
76121;SDS011;64853;53.200;6.080;2022-11-20T14:03:47;0.63;;;0.50;;
76121;SDS011;64853;53.200;6.080;2022-11-20T14:06:15;0.93;;;0.65;;
76121;SDS011;64853;53.200;6.080;2022-11-20T14:08:51;0.85;;;0.70;;
76121;SDS011;64853;53.200;6.080;2022-11-20T14:11:19;0.60;;;0.50;;
76121;SDS011;64853;53.200;6.080;2022-11-20T14:16:25;0.63;;;0.63;;
76121;SDS011;64853;53.200;6.080;2022-11-20T14:18:53;0.90;;;0.80;;
76121;SDS011;64853;53.200;6.080;2022-11-20T14:21:27;0.40;;;0.40;;
76121;SDS011;64853;53.200;6.080;2022-11-20T14:24:02;0.70;;;0.60;;
76121;SDS011;64853;53.200;6.080;2022-11-20T14:26:31;1.13;;;0.60;;
76121;SDS011;64853;53.200;6.080;2022-11-20T14:28:59;1.08;;;0.60;;
76121;SDS011;64853;53.200;6.080;2022-11-20T14:31:26;0.90;;;0.70;;
76121;SDS011;64853;53.200;6.080;2022-11-20T14:33:54;0.80;;;0.55;;
76121;SDS011;64853;53.200;6.080;2022-11-20T14:36:21;0.80;;;0.50;;
76121;SDS011;64853;53.200;6.080;2022-11-20T14:38:49;0.57;;;0.50;;
76121;SDS011;64853;53.200;6.080;2022-11-20T14:41:17;1.25;;;0.45;;
76121;SDS011;64853;53.200;6.080;2022-11-20T14:43:47;0.80;;;0.60;;
76121;SDS011;64853;53.200;6.080;2022-11-20T14:46:19;0.52;;;0.50;;
76121;SDS011;64853;53.200;6.080;2022-11-20T14:48:46;0.60;;;0.60;;
76121;SDS011;64853;53.200;6.080;2022-11-20T14:51:26;0.73;;;0.57;;
76121;SDS011;64853;53.200;6.080;2022-11-20T14:53:55;0.60;;;0.43;;
76121;SDS011;64853;53.200;6.080;2022-11-20T14:56:22;0.75;;;0.57;;
76121;SDS011;64853;53.200;6.080;2022-11-20T14:58:57;0.50;;;0.40;;
76121;SDS011;64853;53.200;6.080;2022-11-20T15:01:27;0.60;;;0.57;;
76121;SDS011;64853;53.200;6.080;2022-11-20T15:04:02;0.75;;;0.52;;
76121;SDS011;64853;53.200;6.080;2022-11-20T15:06:32;0.55;;;0.55;;
76121;SDS011;64853;53.200;6.080;2022-11-20T15:08:58;0.50;;;0.40;;
76121;SDS011;64853;53.200;6.080;2022-11-20T15:11:29;0.82;;;0.52;;
76121;SDS011;64853;53.200;6.080;2022-11-20T15:13:59;0.60;;;0.50;;
76121;SDS011;64853;53.200;6.080;2022-11-20T15:16:29;0.60;;;0.40;;